メインページ
METAR-TAF:

METAR-TAF

空港 :

グラン・カナリア島, スペイン

グラン・カナリア空港

緯度: 27-56N, 経度: 015-23W, 海抜: 23m

現時点の気象観測

当レポートは13分前の09:30(UTC)に作成
の風 6kt、北西から北東の間で変化する
気温 17°C
湿度 63%
気圧 1019 hPa
視程10km以上
高度3000ftの雲は散在している
高度6000ftの千切れ雲あり

METAR: GCLP 250930Z 36006KT 310V050 9999 SCT030 BKN060 17/10 Q1019 NOSIG

時間: 09:43 (09:43 UTC)

予報

当レポートは1時間43分前の08:00(UTC)に作成
予報は25日の 09時(UTC)から 26日の 09時(UTC)まで有効
北/北東の風 10kt
視程10km以上
高度3500ftの雲は散在している
25日の 21時(UTC)から 25日の 23時(UTC)まで徐々に
北西の風 6kt

TAF: GCLP 250800Z 2509/2609 02010KT 9999 SCT035 TX20/2514Z TN13/2606Z BECMG 2521/2523 31006KT

4,000以上の空港の気象観測と天気予報(METAR報とTAF報)

利用可能な観測所は地図上に黄色い丸と赤い丸で示す。

丸の上にカーソルを重ねると観測所名を参照できる。

次にクリックすると気象観測と天気予報を参照できる。

マップの切り替え:黒色「×」印の緑ボタンをクリックして拡大、「-」印の緑ボタンをクリックして縮小、緑色の三角印をクリックして隣りの地図に切り替え


METAR-TAF: